createdAt,value
2023-07-27T00:01:21.617Z,16.53
2023-07-27T00:03:52.236Z,16.50
2023-07-27T00:06:20.285Z,16.50
2023-07-27T00:08:49.675Z,16.47
2023-07-27T00:11:17.667Z,16.49
2023-07-27T00:13:45.659Z,16.49
2023-07-27T00:16:13.908Z,16.49
2023-07-27T00:18:42.056Z,16.49
2023-07-27T00:21:10.105Z,16.47
2023-07-27T00:23:38.326Z,16.46
2023-07-27T00:26:07.668Z,16.44
2023-07-27T00:28:35.726Z,16.49
2023-07-27T00:31:03.899Z,16.46
2023-07-27T00:33:32.012Z,16.46
2023-07-27T00:36:00.941Z,16.44
2023-07-27T00:38:29.468Z,16.44
2023-07-27T00:40:57.708Z,16.45
2023-07-27T00:43:27.153Z,16.46
2023-07-27T00:45:56.100Z,16.44
2023-07-27T00:48:24.363Z,16.43
2023-07-27T00:50:54.147Z,16.44
2023-07-27T00:53:24.553Z,16.44
2023-07-27T00:55:53.005Z,16.39
2023-07-27T00:58:21.244Z,16.38
2023-07-27T01:00:50.701Z,16.36
2023-07-27T01:03:18.965Z,16.42
2023-07-27T01:05:47.746Z,16.37
2023-07-27T01:08:15.750Z,16.39
2023-07-27T01:10:59.577Z,16.36
2023-07-27T01:13:36.674Z,16.38
2023-07-27T01:16:12.770Z,16.38
2023-07-27T01:18:49.853Z,16.33
2023-07-27T01:21:22.516Z,16.39
2023-07-27T01:24:32.120Z,16.38
2023-07-27T01:27:22.451Z,16.40
2023-07-27T01:30:15.810Z,16.37
2023-07-27T01:32:50.295Z,16.36
2023-07-27T01:35:20.605Z,16.33
2023-07-27T01:37:53.302Z,16.37
2023-07-27T01:40:22.995Z,16.37
2023-07-27T01:42:52.433Z,16.41
2023-07-27T01:45:21.783Z,16.39
2023-07-27T01:47:53.220Z,16.41
2023-07-27T01:50:21.540Z,16.40
2023-07-27T01:52:50.454Z,16.44
2023-07-27T01:55:18.727Z,16.43
2023-07-27T01:57:48.305Z,16.50
2023-07-27T02:00:16.924Z,16.49
2023-07-27T02:02:47.850Z,16.47
2023-07-27T02:05:18.497Z,16.48
2023-07-27T02:07:48.419Z,16.51
2023-07-27T02:10:19.182Z,16.48
2023-07-27T02:12:51.877Z,16.45
2023-07-27T02:15:25.475Z,16.48
2023-07-27T02:18:00.246Z,16.48
2023-07-27T02:20:33.819Z,16.49
2023-07-27T02:23:03.806Z,16.51
2023-07-27T02:25:32.155Z,16.49
2023-07-27T02:28:00.205Z,16.53
2023-07-27T02:30:29.031Z,16.55
2023-07-27T02:32:57.194Z,16.55
2023-07-27T02:35:25.305Z,16.54
2023-07-27T02:37:57.900Z,16.54
2023-07-27T02:40:28.209Z,16.54
2023-07-27T02:42:56.650Z,16.54
2023-07-27T02:45:25.566Z,16.52
2023-07-27T02:47:54.269Z,16.54
2023-07-27T02:50:23.240Z,16.55
2023-07-27T02:53:11.321Z,16.56
2023-07-27T02:55:42.806Z,16.56
2023-07-27T02:58:11.088Z,16.55
2023-07-27T03:00:40.236Z,16.55
2023-07-27T03:03:09.068Z,16.58
2023-07-27T03:05:37.079Z,16.60
2023-07-27T03:08:05.539Z,16.58
2023-07-27T03:10:39.413Z,16.57
2023-07-27T03:13:07.710Z,16.63
2023-07-27T03:15:35.715Z,16.63
2023-07-27T03:18:03.779Z,16.61
2023-07-27T03:20:31.874Z,16.66
2023-07-27T03:23:00.820Z,16.65
2023-07-27T03:25:33.505Z,16.70
2023-07-27T03:28:03.311Z,16.67
2023-07-27T03:30:31.426Z,16.67
2023-07-27T03:32:59.566Z,16.72
2023-07-27T03:35:27.655Z,16.71
2023-07-27T03:37:55.642Z,16.72
2023-07-27T03:40:24.332Z,16.73
2023-07-27T03:42:52.382Z,16.73
2023-07-27T03:45:22.658Z,16.74
2023-07-27T03:47:50.891Z,16.78
2023-07-27T03:50:18.925Z,16.77
2023-07-27T03:52:48.107Z,16.79
2023-07-27T03:55:19.667Z,16.82
2023-07-27T03:57:49.091Z,16.88
2023-07-27T04:00:17.172Z,16.91
2023-07-27T04:02:49.841Z,16.87
2023-07-27T04:05:18.086Z,16.87
2023-07-27T04:07:46.078Z,16.87
2023-07-27T04:10:14.058Z,16.88
2023-07-27T04:12:42.332Z,16.91
2023-07-27T04:15:11.440Z,16.93
2023-07-27T04:17:39.533Z,16.93
2023-07-27T04:20:10.496Z,16.96
2023-07-27T04:22:37.620Z,16.96
2023-07-27T04:25:06.545Z,16.98
2023-07-27T04:27:34.621Z,16.97
2023-07-27T04:30:02.694Z,17.00
2023-07-27T04:32:31.536Z,17.00
2023-07-27T04:35:00.078Z,17.00
2023-07-27T04:37:29.508Z,17.06
2023-07-27T04:39:57.508Z,17.07
2023-07-27T04:42:25.558Z,17.04
2023-07-27T04:44:53.545Z,17.05
2023-07-27T04:47:21.667Z,17.11
2023-07-27T04:49:50.162Z,17.10
2023-07-27T04:52:18.230Z,17.11
2023-07-27T04:54:47.644Z,17.12
2023-07-27T04:57:15.612Z,17.12
2023-07-27T04:59:43.783Z,17.14
2023-07-27T05:02:11.858Z,17.12
2023-07-27T05:04:39.974Z,17.14
2023-07-27T05:07:08.588Z,17.15
2023-07-27T05:09:38.277Z,17.21
2023-07-27T05:12:08.645Z,17.22
2023-07-27T05:14:36.681Z,17.24
2023-07-27T05:17:04.752Z,17.26
2023-07-27T05:19:32.741Z,17.27
2023-07-27T05:22:00.746Z,17.25
2023-07-27T05:24:28.870Z,17.30
2023-07-27T05:27:01.764Z,17.31
2023-07-27T05:29:32.217Z,17.35
2023-07-27T05:32:00.178Z,17.34
2023-07-27T05:34:28.412Z,17.34
2023-07-27T05:36:59.580Z,17.36
2023-07-27T05:39:27.725Z,17.37
2023-07-27T05:41:55.746Z,17.38
2023-07-27T05:44:24.045Z,17.39
2023-07-27T05:46:56.876Z,17.40
2023-07-27T05:49:27.767Z,17.43
2023-07-27T05:51:55.752Z,17.43
2023-07-27T05:54:24.004Z,17.48
2023-07-27T05:56:52.028Z,17.49
2023-07-27T05:59:20.093Z,17.50
2023-07-27T06:01:48.333Z,17.57
2023-07-27T06:04:18.380Z,17.55
2023-07-27T06:06:48.009Z,17.59
2023-07-27T06:09:19.499Z,17.57
2023-07-27T06:11:47.905Z,17.64
2023-07-27T06:14:15.970Z,17.64
2023-07-27T06:16:44.133Z,17.67
2023-07-27T06:19:13.968Z,17.67
2023-07-27T06:21:55.405Z,17.67
2023-07-27T06:24:32.868Z,17.68
2023-07-27T06:27:05.504Z,17.70
2023-07-27T06:29:33.928Z,17.77
2023-07-27T06:32:03.157Z,17.79
2023-07-27T06:34:31.484Z,17.79
2023-07-27T06:37:00.957Z,17.84
2023-07-27T06:39:32.038Z,17.86
2023-07-27T06:42:00.148Z,17.93
2023-07-27T06:44:33.340Z,17.98
2023-07-27T06:47:07.192Z,18.02
2023-07-27T06:49:35.799Z,18.12
2023-07-27T06:52:09.694Z,18.15
2023-07-27T06:54:38.130Z,18.17
2023-07-27T06:57:11.295Z,18.22
2023-07-27T06:59:39.761Z,18.29
2023-07-27T07:02:10.178Z,18.33
2023-07-27T07:04:39.253Z,18.35
2023-07-27T07:07:15.551Z,18.36
2023-07-27T07:09:43.720Z,18.38
2023-07-27T07:12:23.435Z,18.37
2023-07-27T07:14:51.627Z,18.37
2023-07-27T07:17:21.936Z,18.38
2023-07-27T07:19:50.057Z,18.42
2023-07-27T07:22:19.542Z,18.43
2023-07-27T07:24:48.207Z,18.49
2023-07-27T07:27:16.428Z,18.49
2023-07-27T07:29:44.552Z,18.55
2023-07-27T07:32:12.863Z,18.61
2023-07-27T07:34:40.967Z,18.60
2023-07-27T07:37:09.121Z,18.61
2023-07-27T07:39:38.515Z,18.60
2023-07-27T07:42:06.824Z,18.68
2023-07-27T07:44:37.594Z,18.73
2023-07-27T07:47:05.815Z,18.77
2023-07-27T07:49:33.966Z,18.79
2023-07-27T07:52:02.178Z,18.82
2023-07-27T07:54:30.877Z,18.87
2023-07-27T07:57:03.339Z,18.90
2023-07-27T07:59:44.735Z,18.89
2023-07-27T08:02:20.054Z,18.96
2023-07-27T08:04:48.177Z,19.00
2023-07-27T08:07:19.849Z,19.07
2023-07-27T08:09:47.792Z,19.13
2023-07-27T08:16:09.586Z,19.42
2023-07-27T08:18:43.190Z,19.45
2023-07-27T08:21:11.396Z,19.52
2023-07-27T08:23:39.539Z,19.61
2023-07-27T08:26:11.161Z,19.92
2023-07-27T08:28:41.939Z,20.00
2023-07-27T08:31:13.453Z,20.14
2023-07-27T08:33:41.708Z,20.28
2023-07-27T08:36:09.743Z,20.33
2023-07-27T08:38:37.785Z,20.44
2023-07-27T08:41:31.156Z,20.46
2023-07-27T08:44:02.480Z,20.50
2023-07-27T08:46:33.420Z,20.53
2023-07-27T08:49:03.740Z,20.48
2023-07-27T08:51:35.925Z,20.48
2023-07-27T08:54:04.121Z,20.43
2023-07-27T08:56:37.000Z,20.32
2023-07-27T08:59:28.370Z,20.46
2023-07-27T09:01:56.586Z,20.50
2023-07-27T09:04:30.299Z,20.44
2023-07-27T09:07:09.216Z,20.48
2023-07-27T09:10:15.130Z,20.62
2023-07-27T09:12:46.200Z,20.86
2023-07-27T09:15:22.144Z,20.91
2023-07-27T09:17:59.734Z,21.11
2023-07-27T09:20:32.552Z,21.02
2023-07-27T09:23:00.885Z,21.07
2023-07-27T09:25:38.405Z,21.11
2023-07-27T09:28:51.627Z,21.37
2023-07-27T09:32:16.746Z,21.45
2023-07-27T09:34:58.045Z,21.38
2023-07-27T09:37:42.306Z,21.42
2023-07-27T09:40:30.476Z,21.40
2023-07-27T09:42:58.762Z,21.29
2023-07-27T09:46:00.791Z,21.32
2023-07-27T09:48:33.463Z,21.08
2023-07-27T09:54:50.401Z,21.19
2023-07-27T09:57:34.765Z,21.15
2023-07-27T10:00:07.489Z,21.19
2023-07-27T10:02:49.436Z,21.22
2023-07-27T10:05:24.667Z,21.37
2023-07-27T10:07:54.714Z,21.31
2023-07-27T10:10:48.115Z,21.38
2023-07-27T10:13:37.455Z,21.46
2023-07-27T10:16:09.559Z,21.45
2023-07-27T10:18:44.991Z,21.50
2023-07-27T10:21:28.629Z,21.51
2023-07-27T10:23:59.100Z,21.58
2023-07-27T10:26:49.185Z,21.60
2023-07-27T10:29:18.691Z,21.48
2023-07-27T10:31:48.740Z,21.58
2023-07-27T10:34:25.416Z,21.69
2023-07-27T10:36:59.072Z,21.65
2023-07-27T10:39:32.549Z,21.73
2023-07-27T10:42:07.326Z,21.83
2023-07-27T10:44:43.246Z,21.85
2023-07-27T10:47:12.699Z,21.96
2023-07-27T10:49:42.274Z,22.02
2023-07-27T10:52:15.386Z,22.03
2023-07-27T10:54:46.647Z,21.98
2023-07-27T10:57:19.188Z,22.05
2023-07-27T10:59:49.206Z,22.21
2023-07-27T11:02:19.498Z,22.13
2023-07-27T11:04:54.779Z,22.11
2023-07-27T11:07:49.645Z,22.12
2023-07-27T11:10:33.908Z,22.07
2023-07-27T11:13:11.374Z,22.20
2023-07-27T11:15:42.728Z,22.28
2023-07-27T11:18:22.729Z,22.30
2023-07-27T11:20:55.078Z,22.33
2023-07-27T11:23:26.067Z,22.16
2023-07-27T11:25:54.853Z,22.33
2023-07-27T11:28:30.718Z,22.35
2023-07-27T11:31:10.548Z,22.32
2023-07-27T11:33:39.498Z,22.21
2023-07-27T11:36:10.451Z,22.22
2023-07-27T11:38:42.744Z,22.35
2023-07-27T11:41:36.990Z,22.47
2023-07-27T11:44:01.470Z,22.59
2023-07-27T11:46:29.968Z,22.49
2023-07-27T11:49:06.350Z,22.52
2023-07-27T11:51:35.512Z,22.55
2023-07-27T11:54:06.833Z,22.64
2023-07-27T11:56:44.026Z,22.56
2023-07-27T12:00:04.166Z,22.59
2023-07-27T12:02:42.930Z,22.68
2023-07-27T12:05:24.239Z,22.71
2023-07-27T12:10:31.475Z,22.91
2023-07-27T12:15:33.487Z,22.67
2023-07-27T12:18:04.321Z,22.76
2023-07-27T12:25:39.953Z,22.68
2023-07-27T12:30:43.756Z,22.45
2023-07-27T12:33:12.557Z,22.28
2023-07-27T12:36:06.474Z,22.31
2023-07-27T12:41:07.085Z,22.34
2023-07-27T12:43:35.094Z,22.35
2023-07-27T12:46:03.323Z,22.35
2023-07-27T12:48:38.242Z,22.45
2023-07-27T12:51:09.827Z,22.39
2023-07-27T12:53:39.679Z,22.34
2023-07-27T12:56:10.520Z,22.24
2023-07-27T12:58:38.653Z,22.24
2023-07-27T13:01:06.842Z,22.12
2023-07-27T13:03:35.251Z,22.09
2023-07-27T13:06:05.372Z,22.00
2023-07-27T13:08:33.450Z,21.99
2023-07-27T13:11:03.696Z,22.10
2023-07-27T13:13:33.212Z,22.11
2023-07-27T13:16:03.343Z,22.10
2023-07-27T13:18:33.761Z,22.02
2023-07-27T13:21:02.361Z,21.92
2023-07-27T13:23:30.324Z,21.91
2023-07-27T13:25:58.657Z,21.97
2023-07-27T13:28:30.271Z,22.18
2023-07-27T13:31:08.318Z,22.34
2023-07-27T13:33:36.601Z,22.50
2023-07-27T13:36:07.911Z,23.27
2023-07-27T13:38:36.135Z,23.44
2023-07-27T13:41:05.013Z,23.81
2023-07-27T13:43:34.078Z,23.62
2023-07-27T13:46:03.934Z,23.33
2023-07-27T13:48:32.282Z,23.17
2023-07-27T13:51:03.064Z,23.00
2023-07-27T13:53:34.226Z,23.10
2023-07-27T13:56:17.553Z,23.20
2023-07-27T13:59:03.138Z,23.06
2023-07-27T14:01:35.393Z,22.94
2023-07-27T14:04:06.890Z,22.90
2023-07-27T14:06:35.312Z,22.88
2023-07-27T14:09:04.707Z,22.89
2023-07-27T14:11:41.211Z,22.91
2023-07-27T14:14:14.538Z,22.84
2023-07-27T14:16:45.833Z,22.85
2023-07-27T14:19:14.633Z,22.89
2023-07-27T14:21:52.046Z,22.72
2023-07-27T14:24:20.363Z,22.61
2023-07-27T14:26:48.705Z,22.56
2023-07-27T14:29:43.510Z,22.52
2023-07-27T14:32:13.205Z,22.55
2023-07-27T14:34:41.432Z,22.52
2023-07-27T14:37:09.513Z,22.50
2023-07-27T14:42:12.376Z,22.31
2023-07-27T14:44:46.837Z,22.38
2023-07-27T14:47:25.385Z,22.33
2023-07-27T14:49:57.997Z,22.34
2023-07-27T14:52:29.260Z,22.41
2023-07-27T14:54:58.535Z,22.33
2023-07-27T14:57:28.998Z,22.34
2023-07-27T15:02:45.404Z,22.30
2023-07-27T15:05:25.289Z,22.21
2023-07-27T15:07:55.989Z,22.17
2023-07-27T15:10:46.091Z,22.25
2023-07-27T15:13:20.547Z,22.21
2023-07-27T15:15:54.574Z,22.25
2023-07-27T15:18:24.500Z,22.22
2023-07-27T15:20:57.848Z,22.35
2023-07-27T15:23:26.700Z,22.32
2023-07-27T15:25:59.717Z,22.35
2023-07-27T15:28:33.944Z,22.26
2023-07-27T15:31:11.895Z,22.31
2023-07-27T15:33:41.704Z,22.37
2023-07-27T15:36:10.380Z,22.38
2023-07-27T15:38:46.151Z,22.33
2023-07-27T15:41:15.639Z,22.43
2023-07-27T15:43:43.820Z,22.45
2023-07-27T15:46:13.503Z,22.39
2023-07-27T15:48:44.004Z,22.52
2023-07-27T15:51:12.291Z,22.53
2023-07-27T15:53:51.458Z,22.60
2023-07-27T15:56:19.718Z,22.58
2023-07-27T15:58:47.956Z,22.67
2023-07-27T16:01:17.733Z,22.66
2023-07-27T16:03:47.491Z,22.65
2023-07-27T16:06:15.764Z,22.88
2023-07-27T16:08:44.047Z,22.89
2023-07-27T16:11:13.094Z,22.76
2023-07-27T16:13:43.860Z,22.68
2023-07-27T16:16:14.401Z,22.70
2023-07-27T16:18:42.694Z,22.82
2023-07-27T16:21:15.071Z,22.92
2023-07-27T16:23:43.191Z,22.97
2023-07-27T16:26:14.564Z,22.98
2023-07-27T16:28:43.175Z,22.98
2023-07-27T16:31:16.987Z,22.88
2023-07-27T16:33:45.134Z,22.79
2023-07-27T16:36:17.887Z,22.63
2023-07-27T16:38:46.356Z,22.63
2023-07-27T16:41:20.317Z,22.59
2023-07-27T16:43:49.691Z,22.49
2023-07-27T16:46:21.385Z,22.53
2023-07-27T16:48:50.032Z,22.49
2023-07-27T16:51:19.639Z,22.52
2023-07-27T16:53:47.749Z,22.50
2023-07-27T16:56:15.898Z,22.55
2023-07-27T16:58:49.795Z,22.66
2023-07-27T17:01:19.430Z,22.53
2023-07-27T17:03:48.785Z,22.50
2023-07-27T17:06:19.973Z,22.48
2023-07-27T17:08:48.454Z,22.45
2023-07-27T17:11:17.675Z,22.41
2023-07-27T17:13:46.203Z,22.44
2023-07-27T17:16:15.941Z,22.32
2023-07-27T17:18:45.421Z,22.39
2023-07-27T17:21:14.499Z,22.63
2023-07-27T17:23:44.180Z,22.65
2023-07-27T17:26:12.555Z,22.95
2023-07-27T17:28:40.624Z,22.91
2023-07-27T17:31:08.713Z,22.86
2023-07-27T17:33:36.808Z,22.91
2023-07-27T17:36:08.185Z,22.86
2023-07-27T17:38:46.520Z,22.89
2023-07-27T17:41:16.085Z,22.70
2023-07-27T17:43:46.684Z,22.69
2023-07-27T17:46:17.728Z,22.73
2023-07-27T17:48:46.318Z,22.62
2023-07-27T18:12:24.048Z,22.34
2023-07-27T18:14:52.229Z,22.26
2023-07-27T18:17:22.437Z,22.23
2023-07-27T18:19:55.061Z,22.17
2023-07-27T18:22:23.472Z,22.17
2023-07-27T18:24:51.867Z,22.13
2023-07-27T18:27:20.275Z,22.13
2023-07-27T18:29:48.484Z,22.12
2023-07-27T18:32:24.075Z,22.07
2023-07-27T18:34:55.694Z,22.08
2023-07-27T18:37:24.103Z,22.00
2023-07-27T18:39:53.754Z,21.91
2023-07-27T18:42:22.452Z,21.91
2023-07-27T18:44:53.140Z,21.90
2023-07-27T18:47:25.836Z,21.77
2023-07-27T18:49:58.773Z,21.77
2023-07-27T18:52:33.354Z,21.81
2023-07-27T18:55:04.634Z,21.77
2023-07-27T18:57:37.331Z,21.79
2023-07-27T19:00:06.374Z,21.77
2023-07-27T19:02:34.699Z,21.74
2023-07-27T19:05:04.268Z,21.67
2023-07-27T19:07:32.430Z,21.64
2023-07-27T19:10:01.480Z,21.58
2023-07-27T19:12:29.610Z,21.54
2023-07-27T19:14:57.661Z,21.50
2023-07-27T19:17:25.839Z,21.46
2023-07-27T19:19:53.872Z,21.44
2023-07-27T19:22:23.320Z,21.40
2023-07-27T19:24:51.475Z,21.35
2023-07-27T19:27:24.262Z,21.33
2023-07-27T19:29:52.860Z,21.34
2023-07-27T19:32:21.510Z,21.29
2023-07-27T19:34:50.089Z,21.22
2023-07-27T19:37:18.309Z,21.17
2023-07-27T19:39:49.985Z,21.14
2023-07-27T19:42:18.481Z,21.07
2023-07-27T19:44:52.145Z,21.09
2023-07-27T19:47:20.735Z,21.07
2023-07-27T19:50:03.999Z,21.02
2023-07-27T19:52:35.563Z,20.97
2023-07-27T19:55:05.769Z,20.96
2023-07-27T19:57:34.134Z,20.94
2023-07-27T20:00:02.474Z,20.94
2023-07-27T20:02:40.792Z,20.91
2023-07-27T20:05:09.546Z,20.91
2023-07-27T20:07:40.176Z,20.91
2023-07-27T20:10:10.363Z,20.89
2023-07-27T20:12:38.538Z,20.84
2023-07-27T20:15:07.671Z,20.76
2023-07-27T20:17:36.365Z,20.76
2023-07-27T20:20:08.328Z,20.61
2023-07-27T20:22:36.810Z,20.62
2023-07-27T20:25:05.846Z,20.60
2023-07-27T20:27:35.337Z,20.52
2023-07-27T20:30:03.582Z,20.51
2023-07-27T20:32:32.168Z,20.47
2023-07-27T20:35:00.262Z,20.48
2023-07-27T20:37:28.396Z,20.46
2023-07-27T20:39:56.444Z,20.43
2023-07-27T20:42:24.486Z,20.46
2023-07-27T20:44:55.760Z,20.39
2023-07-27T20:47:24.236Z,20.41
2023-07-27T20:49:52.380Z,20.39
2023-07-27T20:52:23.375Z,20.33
2023-07-27T20:54:51.557Z,20.35
2023-07-27T20:57:19.852Z,20.35
2023-07-27T20:59:56.705Z,20.27
2023-07-27T21:02:26.776Z,20.25
2023-07-27T21:05:02.356Z,20.20
2023-07-27T21:07:30.476Z,20.19
2023-07-27T21:10:02.961Z,20.18
2023-07-27T21:12:31.172Z,20.16
2023-07-27T21:15:01.183Z,20.13
2023-07-27T21:17:30.374Z,20.16
2023-07-27T21:19:58.440Z,20.15
2023-07-27T21:22:26.745Z,20.11
2023-07-27T21:24:54.910Z,20.13
2023-07-27T21:27:22.946Z,20.07
2023-07-27T21:29:50.963Z,20.09
2023-07-27T21:32:20.460Z,20.11
2023-07-27T21:34:48.547Z,20.10
2023-07-27T21:37:16.695Z,20.12
2023-07-27T21:39:44.724Z,20.09
2023-07-27T21:42:12.728Z,20.06
2023-07-27T21:44:40.785Z,20.09
2023-07-27T21:47:08.821Z,20.09
2023-07-27T21:49:38.237Z,20.08
2023-07-27T21:52:07.086Z,20.08
2023-07-27T21:54:38.295Z,20.08
2023-07-27T21:57:06.908Z,20.04
2023-07-27T21:59:35.104Z,20.04
2023-07-27T22:02:05.619Z,20.01
2023-07-27T22:04:33.773Z,20.00
2023-07-27T22:07:06.083Z,19.98
2023-07-27T22:09:34.134Z,19.97
2023-07-27T22:12:03.163Z,19.98
2023-07-27T22:14:31.135Z,19.96
2023-07-27T22:16:59.129Z,19.92
2023-07-27T22:19:27.170Z,19.88
2023-07-27T22:21:55.170Z,19.90
2023-07-27T22:24:24.542Z,19.88
2023-07-27T22:26:52.933Z,19.84
2023-07-27T22:29:20.962Z,19.88
2023-07-27T22:31:49.677Z,19.81
2023-07-27T22:34:17.702Z,19.76
2023-07-27T22:36:45.911Z,19.74
2023-07-27T22:39:13.992Z,19.74
2023-07-27T22:41:43.415Z,19.68
2023-07-27T22:44:11.368Z,19.66
2023-07-27T22:46:39.457Z,19.62
2023-07-27T22:49:07.558Z,19.59
2023-07-27T22:51:35.506Z,19.57
2023-07-27T22:54:03.451Z,19.51
2023-07-27T22:56:32.959Z,19.51
2023-07-27T22:59:02.657Z,19.48
2023-07-27T23:01:30.692Z,19.44
2023-07-27T23:03:58.667Z,19.40
2023-07-27T23:06:26.688Z,19.38
2023-07-27T23:08:54.674Z,19.34
2023-07-27T23:11:22.652Z,19.31
2023-07-27T23:13:50.725Z,19.31
2023-07-27T23:16:20.136Z,19.25
2023-07-27T23:18:48.302Z,19.24
2023-07-27T23:21:16.417Z,19.24
2023-07-27T23:23:44.407Z,19.22
2023-07-27T23:26:12.510Z,19.19
2023-07-27T23:28:40.624Z,19.16
2023-07-27T23:31:08.702Z,19.14
2023-07-27T23:33:38.108Z,19.10
2023-07-27T23:36:11.697Z,19.07
2023-07-27T23:38:40.601Z,19.08
2023-07-27T23:41:08.672Z,19.04
2023-07-27T23:43:36.909Z,19.01
2023-07-27T23:46:04.985Z,18.99
2023-07-27T23:48:33.172Z,18.95
2023-07-27T23:51:02.769Z,18.95
2023-07-27T23:53:30.727Z,18.96
2023-07-27T23:56:00.525Z,18.90
2023-07-27T23:58:28.565Z,18.88
